createdAt,value
2019-03-03T00:02:50.772Z,18.70
2019-03-03T00:07:59.479Z,18.87
2019-03-03T00:13:06.802Z,19.03
2019-03-03T00:18:13.286Z,19.43
2019-03-03T00:23:21.255Z,19.63
2019-03-03T00:28:33.857Z,19.53
2019-03-03T00:33:40.116Z,19.80
2019-03-03T00:38:47.771Z,20.33
2019-03-03T00:44:01.977Z,18.73
2019-03-03T00:49:11.678Z,20.20
2019-03-03T00:54:25.591Z,20.17
2019-03-03T00:59:45.510Z,20.03
2019-03-03T01:04:54.685Z,19.93
2019-03-03T01:10:08.702Z,20.23
2019-03-03T01:15:20.301Z,20.97
2019-03-03T01:20:33.946Z,21.13
2019-03-03T01:25:40.592Z,21.53
2019-03-03T01:30:46.720Z,21.97
2019-03-03T01:35:54.690Z,21.93
2019-03-03T01:41:01.823Z,22.47
2019-03-03T01:46:11.663Z,21.63
2019-03-03T01:51:16.164Z,21.53
2019-03-03T01:56:22.284Z,22.30
2019-03-03T02:01:29.684Z,22.10
2019-03-03T02:06:37.830Z,22.80
2019-03-03T02:11:49.223Z,23.40
2019-03-03T02:16:56.805Z,22.37
2019-03-03T02:22:04.524Z,22.17
2019-03-03T02:27:13.306Z,23.57
2019-03-03T02:32:26.104Z,22.27
2019-03-03T02:37:39.202Z,23.27
2019-03-03T02:42:47.784Z,23.23
2019-03-03T02:47:57.891Z,22.93
2019-03-03T02:53:06.140Z,23.10
2019-03-03T02:58:13.901Z,23.53
2019-03-03T03:03:24.768Z,22.60
2019-03-03T03:08:48.991Z,22.77
2019-03-03T03:14:01.489Z,22.73
2019-03-03T03:19:10.708Z,21.83
2019-03-03T03:24:25.548Z,22.63
2019-03-03T03:29:57.699Z,20.97
2019-03-03T03:35:07.610Z,21.37
2019-03-03T03:40:27.500Z,21.43
2019-03-03T03:45:47.182Z,22.00
2019-03-03T03:51:12.425Z,20.67
2019-03-03T03:56:25.761Z,21.90
2019-03-03T04:01:43.494Z,20.93
2019-03-03T04:07:00.017Z,19.87
2019-03-03T04:12:10.987Z,20.43
2019-03-03T04:17:20.631Z,20.43
2019-03-03T04:22:47.781Z,18.73
2019-03-03T04:27:58.338Z,18.77
2019-03-03T04:33:22.606Z,18.07
2019-03-03T04:38:34.916Z,18.43
2019-03-03T04:43:52.251Z,18.30
2019-03-03T04:49:08.886Z,17.47
2019-03-03T04:54:27.262Z,17.77
2019-03-03T04:59:43.113Z,16.93
2019-03-03T05:05:01.026Z,16.00
2019-03-03T05:10:25.820Z,15.07
2019-03-03T05:15:34.294Z,15.77
2019-03-03T05:20:52.846Z,15.67
2019-03-03T05:26:01.890Z,15.40
2019-03-03T05:31:10.210Z,14.07
2019-03-03T05:36:19.246Z,14.37
2019-03-03T05:41:26.329Z,13.93
2019-03-03T05:46:36.698Z,12.30
2019-03-03T05:51:46.077Z,11.80
2019-03-03T05:56:54.771Z,11.93
2019-03-03T06:02:04.743Z,11.83
2019-03-03T06:07:12.563Z,11.80
2019-03-03T06:12:22.625Z,12.37
2019-03-03T06:17:30.962Z,11.07
2019-03-03T06:22:40.216Z,11.17
2019-03-03T06:27:47.626Z,9.90
2019-03-03T06:32:59.730Z,9.97
2019-03-03T06:38:10.835Z,9.27
2019-03-03T06:43:19.887Z,8.60
2019-03-03T06:48:26.794Z,8.33
2019-03-03T06:53:34.121Z,7.13
2019-03-03T06:58:43.661Z,7.10
2019-03-03T07:03:51.721Z,6.53
2019-03-03T07:08:59.798Z,6.23
2019-03-03T07:14:08.727Z,5.73
2019-03-03T07:19:18.277Z,5.83
2019-03-03T07:24:27.453Z,5.47
2019-03-03T07:29:34.999Z,4.93
2019-03-03T07:34:43.002Z,4.80
2019-03-03T07:39:53.392Z,4.40
2019-03-03T07:45:04.576Z,4.13
2019-03-03T07:50:12.856Z,4.23
2019-03-03T07:55:19.736Z,4.10
2019-03-03T08:00:26.245Z,4.43
2019-03-03T08:05:35.023Z,4.27
2019-03-03T08:10:42.439Z,4.20
2019-03-03T08:15:55.101Z,4.00
2019-03-03T08:21:05.479Z,4.13
2019-03-03T08:26:14.479Z,3.27
2019-03-03T08:31:25.933Z,4.17
2019-03-03T08:36:35.551Z,4.03
2019-03-03T08:41:48.728Z,4.20
2019-03-03T08:46:57.661Z,4.30
2019-03-03T08:52:08.320Z,4.40
2019-03-03T08:57:18.725Z,3.80
2019-03-03T09:02:26.799Z,4.07
2019-03-03T09:07:46.785Z,4.50
2019-03-03T09:13:06.823Z,5.30
2019-03-03T09:18:15.564Z,4.37
2019-03-03T09:23:24.677Z,4.33
2019-03-03T09:28:41.033Z,4.50
2019-03-03T09:33:49.544Z,3.87
2019-03-03T09:39:08.955Z,4.40
2019-03-03T09:44:19.207Z,4.50
2019-03-03T09:49:30.866Z,4.67
2019-03-03T09:54:42.548Z,4.57
2019-03-03T09:59:53.400Z,4.00
2019-03-03T10:05:04.050Z,3.87
2019-03-03T10:10:16.545Z,4.53
2019-03-03T10:15:26.514Z,4.30
2019-03-03T10:20:51.606Z,4.13
2019-03-03T10:25:59.091Z,4.60
2019-03-03T10:31:23.295Z,4.27
2019-03-03T10:36:48.346Z,4.30
2019-03-03T10:42:02.066Z,4.30
2019-03-03T10:47:09.619Z,4.00
2019-03-03T10:52:23.802Z,4.50
2019-03-03T10:57:48.873Z,4.63
2019-03-03T11:03:13.366Z,3.83
2019-03-03T11:08:38.172Z,4.60
2019-03-03T11:13:53.129Z,4.43
2019-03-03T11:19:01.309Z,3.77
2019-03-03T11:24:14.309Z,3.80
2019-03-03T11:29:34.904Z,4.00
2019-03-03T11:34:49.763Z,3.63
2019-03-03T11:40:01.187Z,4.00
2019-03-03T11:45:11.904Z,4.10
2019-03-03T11:50:36.378Z,3.70
2019-03-03T11:55:46.365Z,4.17
2019-03-03T12:00:57.417Z,3.67
2019-03-03T12:06:05.745Z,3.83
2019-03-03T12:11:22.399Z,4.10
2019-03-03T12:16:35.600Z,3.73
2019-03-03T12:21:43.581Z,4.20
2019-03-03T12:27:01.528Z,4.57
2019-03-03T12:32:10.088Z,4.33
2019-03-03T12:37:23.247Z,4.43
2019-03-03T12:42:37.990Z,4.73
2019-03-03T12:47:47.427Z,4.13
2019-03-03T12:53:00.475Z,4.73
2019-03-03T12:58:15.486Z,4.20
2019-03-03T13:03:22.858Z,5.17
2019-03-03T13:08:36.922Z,3.90
2019-03-03T13:13:44.245Z,4.07
2019-03-03T13:19:08.605Z,4.40
2019-03-03T13:24:23.776Z,4.90
2019-03-03T13:29:49.016Z,4.07
2019-03-03T13:35:08.902Z,4.43
2019-03-03T13:40:16.390Z,3.90
2019-03-03T13:45:22.824Z,4.20
2019-03-03T13:50:28.806Z,3.67
2019-03-03T13:55:36.852Z,3.60
2019-03-03T14:00:44.094Z,3.30
2019-03-03T14:05:50.687Z,3.23
2019-03-03T14:10:56.392Z,3.10
2019-03-03T14:16:03.478Z,3.13
2019-03-03T14:21:12.001Z,3.10
2019-03-03T14:26:18.474Z,2.87
2019-03-03T14:31:24.751Z,3.20
2019-03-03T14:36:32.847Z,3.20
2019-03-03T14:41:39.443Z,3.00
2019-03-03T14:46:45.617Z,3.27
2019-03-03T14:51:51.487Z,3.40
2019-03-03T14:56:59.793Z,3.97
2019-03-03T15:02:06.630Z,4.03
2019-03-03T15:07:12.470Z,4.37
2019-03-03T15:12:19.322Z,4.40
2019-03-03T15:17:25.955Z,4.47
2019-03-03T15:22:33.342Z,4.80
2019-03-03T15:27:39.154Z,5.10
2019-03-03T15:32:44.713Z,4.80
2019-03-03T15:37:50.427Z,5.10
2019-03-03T15:42:57.722Z,4.63
2019-03-03T15:48:05.466Z,5.00
2019-03-03T15:53:11.868Z,5.10
2019-03-03T15:58:17.932Z,5.80
2019-03-03T16:03:24.194Z,4.30
2019-03-03T16:08:30.203Z,5.90
2019-03-03T16:13:38.025Z,5.53
2019-03-03T16:18:44.904Z,5.10
2019-03-03T16:23:51.563Z,5.33
2019-03-03T16:28:57.596Z,4.83
2019-03-03T16:34:03.583Z,5.63
2019-03-03T16:39:09.709Z,4.97
2019-03-03T16:44:15.630Z,4.60
2019-03-03T16:49:21.644Z,5.13
2019-03-03T16:54:27.686Z,5.90
2019-03-03T16:59:35.048Z,4.47
2019-03-03T17:04:43.082Z,4.50
2019-03-03T17:09:50.237Z,5.13
2019-03-03T17:14:56.020Z,4.70
2019-03-03T17:20:03.277Z,5.03
2019-03-03T17:25:17.425Z,5.00
2019-03-03T17:30:25.915Z,4.40
2019-03-03T17:35:32.776Z,4.43
2019-03-03T17:40:38.920Z,4.13
2019-03-03T17:45:46.434Z,4.67
2019-03-03T17:50:52.232Z,3.97
2019-03-03T17:55:58.064Z,3.97
2019-03-03T18:01:06.605Z,4.73
2019-03-03T18:06:12.187Z,4.13
2019-03-03T18:11:19.687Z,4.60
2019-03-03T18:16:25.403Z,4.23
2019-03-03T18:21:32.667Z,4.30
2019-03-03T18:26:38.795Z,3.83
2019-03-03T18:31:45.804Z,4.10
2019-03-03T18:36:52.569Z,4.00
2019-03-03T18:41:58.605Z,4.10
2019-03-03T18:47:06.577Z,4.70
2019-03-03T18:52:14.224Z,4.70
2019-03-03T18:57:21.868Z,3.33
2019-03-03T19:02:29.414Z,3.63
2019-03-03T19:07:39.640Z,3.73
2019-03-03T19:12:44.746Z,3.67
2019-03-03T19:17:50.663Z,3.60
2019-03-03T19:22:56.831Z,4.00
2019-03-03T19:28:02.473Z,3.17
2019-03-03T19:33:11.352Z,3.63
2019-03-03T19:38:16.924Z,3.50
2019-03-03T19:43:23.559Z,3.53
2019-03-03T19:48:31.117Z,3.43
2019-03-03T19:53:36.856Z,3.30
2019-03-03T19:58:42.684Z,3.10
2019-03-03T20:03:49.789Z,3.73
2019-03-03T20:08:56.020Z,3.03
2019-03-03T20:14:02.298Z,2.83
2019-03-03T20:19:09.014Z,3.00
2019-03-03T20:24:17.774Z,3.40
2019-03-03T20:29:23.847Z,3.03
2019-03-03T20:34:29.896Z,2.87
2019-03-03T20:39:37.759Z,2.97
2019-03-03T20:44:46.029Z,3.13
2019-03-03T20:49:52.225Z,3.27
2019-03-03T20:54:58.057Z,3.10
2019-03-03T21:00:05.303Z,3.00
2019-03-03T21:05:12.482Z,2.77
2019-03-03T21:10:24.063Z,3.50
2019-03-03T21:15:30.181Z,3.47
2019-03-03T21:20:39.284Z,3.03
2019-03-03T21:25:45.828Z,3.33
2019-03-03T21:30:51.696Z,3.37
2019-03-03T21:35:57.961Z,3.00
2019-03-03T21:41:03.686Z,2.93
2019-03-03T21:46:09.341Z,3.47
2019-03-03T21:51:15.274Z,3.00
2019-03-03T21:56:22.288Z,3.50
2019-03-03T22:01:27.876Z,3.43
2019-03-03T22:06:33.593Z,3.10
2019-03-03T22:11:39.511Z,3.30
2019-03-03T22:16:45.097Z,3.80
2019-03-03T22:21:52.812Z,3.30
2019-03-03T22:27:00.127Z,3.27
2019-03-03T22:32:05.857Z,3.63
2019-03-03T22:37:12.092Z,4.10
2019-03-03T22:42:17.712Z,3.50
2019-03-03T22:47:23.487Z,3.10
2019-03-03T22:52:29.048Z,3.40
2019-03-03T22:57:36.002Z,3.13
2019-03-03T23:02:41.743Z,3.33
2019-03-03T23:07:50.357Z,3.23
2019-03-03T23:12:59.119Z,2.90
2019-03-03T23:18:33.593Z,2.90
2019-03-03T23:23:43.457Z,3.10
2019-03-03T23:28:49.013Z,3.63
2019-03-03T23:33:54.836Z,2.60
2019-03-03T23:39:00.737Z,3.30
2019-03-03T23:44:11.396Z,3.43
2019-03-03T23:49:17.020Z,3.03
2019-03-03T23:54:24.285Z,3.03
2019-03-03T23:59:30.456Z,3.20
